createdAt,value
2017-06-23T07:36:24.944Z,952.79
2017-06-23T07:37:24.924Z,952.83
2017-06-23T07:38:24.923Z,952.87
2017-06-23T07:39:24.923Z,952.84
2017-06-23T07:40:24.919Z,952.88
2017-06-23T07:41:24.918Z,952.91
2017-06-23T07:42:24.916Z,952.92
2017-06-23T07:43:24.913Z,952.89
2017-06-23T07:44:24.911Z,952.89
2017-06-23T07:45:24.911Z,952.95
2017-06-23T07:46:24.909Z,952.95
2017-06-23T07:47:24.906Z,952.98
2017-06-23T07:48:24.905Z,952.96
2017-06-23T07:49:24.916Z,952.99
2017-06-23T07:50:24.923Z,953.01
2017-06-23T07:51:24.900Z,953.04
2017-06-23T07:52:24.920Z,953
2017-06-23T07:53:24.893Z,953.08
2017-06-23T07:54:24.893Z,953.04
2017-06-23T07:55:24.892Z,953.11
2017-06-23T07:56:24.891Z,953.06
2017-06-23T07:57:24.939Z,953.11
2017-06-23T07:58:24.886Z,953.07
2017-06-23T07:59:24.883Z,953.1
2017-06-23T08:00:24.880Z,953.08
2017-06-23T08:01:24.880Z,953.12
2017-06-23T08:02:24.878Z,953.11
2017-06-23T08:03:24.876Z,953.15
2017-06-23T08:04:24.881Z,953.11
2017-06-23T08:05:24.872Z,953.16
2017-06-23T08:06:24.870Z,953.16
2017-06-23T08:07:24.867Z,953.16
2017-06-23T08:08:24.867Z,953.18
2017-06-23T08:09:24.864Z,953.17
2017-06-23T08:10:24.862Z,953.21
2017-06-23T08:11:24.880Z,953.15
2017-06-23T08:12:24.858Z,953.2
2017-06-23T08:13:24.857Z,953.2
2017-06-23T08:14:24.856Z,953.25
2017-06-23T08:15:24.855Z,953.24
2017-06-23T08:16:24.853Z,953.23
2017-06-23T08:17:24.850Z,953.21
2017-06-23T08:18:24.848Z,953.22
2017-06-23T08:19:24.848Z,953.19
2017-06-23T08:20:24.846Z,953.19
2017-06-23T08:21:24.846Z,953.23
2017-06-23T08:22:24.845Z,953.25
2017-06-23T08:23:24.955Z,953.23
2017-06-23T08:24:24.860Z,953.25
2017-06-23T08:25:24.842Z,953.26
2017-06-23T08:26:24.842Z,953.3
2017-06-23T08:27:24.838Z,953.31
2017-06-23T08:28:24.865Z,953.31
2017-06-23T08:29:24.837Z,953.27
2017-06-23T08:30:24.836Z,953.3
2017-06-23T08:31:24.835Z,953.31
2017-06-23T08:32:24.852Z,953.33
2017-06-23T08:33:24.858Z,953.37
2017-06-23T08:34:24.832Z,953.33
2017-06-23T08:35:24.832Z,953.39
2017-06-23T08:36:24.831Z,953.36
2017-06-23T08:37:24.834Z,953.37
2017-06-23T08:38:24.829Z,953.4
2017-06-23T08:39:24.828Z,953.39
2017-06-23T08:40:24.830Z,953.41
2017-06-23T08:41:24.829Z,953.46
2017-06-23T08:42:24.826Z,953.42
2017-06-23T08:43:24.827Z,953.47
2017-06-23T08:44:24.825Z,953.42
2017-06-23T08:45:24.824Z,953.49
2017-06-23T08:46:24.824Z,953.5
2017-06-23T08:47:24.824Z,953.5
2017-06-23T08:48:24.822Z,953.5
2017-06-23T08:49:24.820Z,953.5
2017-06-23T08:50:24.819Z,953.49
2017-06-23T08:51:24.820Z,953.47
2017-06-23T08:52:24.835Z,953.49
2017-06-23T08:53:24.816Z,953.56
2017-06-23T08:54:24.816Z,953.5
2017-06-23T08:55:24.814Z,953.56
2017-06-23T08:56:24.812Z,953.55
2017-06-23T08:57:24.811Z,953.59
2017-06-23T08:58:24.814Z,953.59
2017-06-23T08:59:24.810Z,953.57
2017-06-23T09:00:24.809Z,953.62
2017-06-23T09:01:24.808Z,953.59
2017-06-23T09:02:24.806Z,953.6
2017-06-23T09:03:24.806Z,953.59
2017-06-23T09:04:24.811Z,953.54
2017-06-23T09:05:24.802Z,953.59
2017-06-23T09:06:24.802Z,953.63
2017-06-23T09:07:24.799Z,953.54
2017-06-23T09:08:24.798Z,953.6
2017-06-23T09:09:24.799Z,953.57
2017-06-23T09:10:24.797Z,953.53
2017-06-23T09:11:24.794Z,953.52
2017-06-23T09:12:24.795Z,953.55
2017-06-23T09:13:24.792Z,953.51
2017-06-23T09:14:24.789Z,953.5
2017-06-23T09:15:24.789Z,953.49
2017-06-23T09:16:24.788Z,953.49
2017-06-23T09:17:24.788Z,953.46
2017-06-23T09:18:24.785Z,953.46
2017-06-23T09:19:24.791Z,953.46
2017-06-23T09:20:24.785Z,953.49
2017-06-23T09:21:24.784Z,953.54
2017-06-23T09:22:24.783Z,953.52
2017-06-23T09:23:24.783Z,953.52
2017-06-23T09:24:24.783Z,953.55
2017-06-23T09:25:24.782Z,953.43
2017-06-23T09:26:24.788Z,953.43
2017-06-23T09:27:24.781Z,953.48
2017-06-23T09:28:24.781Z,953.43
2017-06-23T09:29:24.795Z,953.41
2017-06-23T09:30:24.781Z,953.4
2017-06-23T09:31:24.781Z,953.44
2017-06-23T09:32:24.782Z,953.38
2017-06-23T09:33:24.780Z,953.4
2017-06-23T09:34:24.782Z,953.4
2017-06-23T09:35:24.784Z,953.37
2017-06-23T09:36:24.784Z,953.38
2017-06-23T09:37:24.784Z,953.38
2017-06-23T09:38:24.785Z,953.36
2017-06-23T09:39:24.785Z,953.31
2017-06-23T09:40:24.786Z,953.33
2017-06-23T09:41:24.787Z,953.29
2017-06-23T09:42:24.789Z,953.37
2017-06-23T09:43:24.788Z,953.35
2017-06-23T09:44:24.794Z,953.35
2017-06-23T09:45:24.800Z,953.36
2017-06-23T09:46:24.791Z,953.39
2017-06-23T09:47:24.801Z,953.36
2017-06-23T09:48:24.790Z,953.4
2017-06-23T09:49:24.793Z,953.41
2017-06-23T09:50:24.792Z,953.43
2017-06-23T09:51:24.792Z,953.39
2017-06-23T09:52:24.794Z,953.42
2017-06-23T09:53:24.793Z,953.44
2017-06-23T09:54:24.795Z,953.45
2017-06-23T09:55:24.797Z,953.49
2017-06-23T09:56:24.794Z,953.45
2017-06-23T09:57:24.795Z,953.43
2017-06-23T09:58:24.810Z,953.45
2017-06-23T09:59:24.796Z,953.5
2017-06-23T10:00:24.796Z,953.49
2017-06-23T10:01:24.796Z,953.46
2017-06-23T10:02:24.797Z,953.49
2017-06-23T10:03:24.795Z,953.48
2017-06-23T10:04:24.797Z,953.48
2017-06-23T10:05:24.819Z,953.52
2017-06-23T10:06:24.796Z,953.51
2017-06-23T10:07:24.797Z,953.55
2017-06-23T10:08:24.796Z,953.57
2017-06-23T10:09:24.795Z,953.57
2017-06-23T10:10:24.795Z,953.55
2017-06-23T10:11:24.794Z,953.6
2017-06-23T10:12:24.795Z,953.62
2017-06-23T10:13:24.794Z,953.61
2017-06-23T10:14:24.793Z,953.58
2017-06-23T10:15:24.794Z,953.59
2017-06-23T10:16:24.795Z,953.57
2017-06-23T10:17:24.793Z,953.58
2017-06-23T10:18:24.797Z,953.59
2017-06-23T10:19:24.794Z,953.59
2017-06-23T10:20:24.793Z,953.54
2017-06-23T10:21:24.793Z,953.57
2017-06-23T10:22:24.809Z,953.63
2017-06-23T10:23:24.795Z,953.68
2017-06-23T10:24:24.793Z,953.65
2017-06-23T10:25:24.794Z,953.58
2017-06-23T10:26:24.794Z,953.54
2017-06-23T10:27:24.793Z,953.5
2017-06-23T10:28:24.794Z,953.5
2017-06-23T10:29:24.793Z,953.52
2017-06-23T10:30:24.794Z,953.47
2017-06-23T10:31:24.807Z,953.49
2017-06-23T10:32:24.795Z,953.46
2017-06-23T10:33:24.797Z,953.49
2017-06-23T10:34:24.796Z,953.45
2017-06-23T10:35:24.795Z,953.47
2017-06-23T10:36:24.796Z,953.54
2017-06-23T10:37:24.799Z,953.51
2017-06-23T10:38:24.805Z,953.56
2017-06-23T10:39:24.797Z,953.55
2017-06-23T10:40:24.799Z,953.57
2017-06-23T10:41:24.800Z,953.57
2017-06-23T10:42:24.800Z,953.61
2017-06-23T10:43:24.801Z,953.65
2017-06-23T10:44:24.804Z,953.54
2017-06-23T10:45:24.803Z,953.53
2017-06-23T10:46:24.803Z,953.57
2017-06-23T10:47:24.804Z,953.56
2017-06-23T10:48:24.805Z,953.6
2017-06-23T10:49:24.807Z,953.57
2017-06-23T10:50:24.807Z,953.56
2017-06-23T10:51:24.808Z,953.58
2017-06-23T10:52:24.812Z,953.52
2017-06-23T10:53:24.811Z,953.57
2017-06-23T10:54:24.812Z,953.59
2017-06-23T10:55:24.815Z,953.62
2017-06-23T10:56:24.818Z,953.63
2017-06-23T10:57:24.816Z,953.57
2017-06-23T10:58:24.819Z,953.59
2017-06-23T10:59:24.821Z,953.61
2017-06-23T11:00:24.823Z,953.64
2017-06-23T11:01:24.823Z,953.65
2017-06-23T11:02:24.824Z,953.6
2017-06-23T11:03:24.827Z,953.54
2017-06-23T11:04:24.827Z,953.64
2017-06-23T11:05:24.829Z,953.55
2017-06-23T11:06:24.830Z,953.63
2017-06-23T11:07:24.832Z,953.62
2017-06-23T11:08:24.833Z,953.6
2017-06-23T11:09:24.833Z,953.6
2017-06-23T11:10:24.835Z,953.58
2017-06-23T11:11:24.838Z,953.6
2017-06-23T11:12:24.842Z,953.6
2017-06-23T11:13:24.842Z,953.59
2017-06-23T11:14:24.845Z,953.6
2017-06-23T11:15:24.846Z,953.57
2017-06-23T11:16:24.848Z,953.57
2017-06-23T11:17:24.852Z,953.58
2017-06-23T11:18:24.858Z,953.6
2017-06-23T11:19:24.854Z,953.58
2017-06-23T11:20:24.856Z,953.68
2017-06-23T11:21:24.861Z,953.61
2017-06-23T11:22:24.861Z,953.63
2017-06-23T11:23:24.884Z,953.62
2017-06-23T11:24:24.866Z,953.65
2017-06-23T11:25:24.869Z,953.71
2017-06-23T11:26:24.870Z,953.63
2017-06-23T11:27:24.873Z,953.63
2017-06-23T11:28:24.876Z,953.58
2017-06-23T11:29:24.878Z,953.57
2017-06-23T11:30:24.881Z,953.48
2017-06-23T11:31:24.885Z,953.5
2017-06-23T11:32:24.908Z,953.55
2017-06-23T11:33:24.888Z,953.61
2017-06-23T11:34:24.889Z,953.59
2017-06-23T11:35:24.914Z,953.66
2017-06-23T11:36:24.896Z,953.57
2017-06-23T11:37:24.897Z,953.6
2017-06-23T11:38:24.900Z,953.56
2017-06-23T11:39:24.902Z,953.62
2017-06-23T11:40:24.905Z,953.58
2017-06-23T11:41:24.908Z,953.59
2017-06-23T11:42:24.910Z,953.54
2017-06-23T11:43:24.913Z,953.54
2017-06-23T11:44:24.916Z,953.59
2017-06-23T11:45:24.917Z,953.52
2017-06-23T11:46:24.920Z,953.52
2017-06-23T11:47:24.922Z,953.55
2017-06-23T11:48:24.949Z,953.57
2017-06-23T11:49:24.926Z,953.58
2017-06-23T11:50:24.933Z,953.65
2017-06-23T11:51:24.942Z,953.59
2017-06-23T11:52:24.934Z,953.61
2017-06-23T11:53:24.934Z,953.7
2017-06-23T11:54:24.960Z,953.75
2017-06-23T11:55:24.940Z,953.67
2017-06-23T11:56:24.966Z,953.69
2017-06-23T11:57:24.943Z,953.75
2017-06-23T11:58:24.945Z,953.68
2017-06-23T11:59:24.946Z,953.66
2017-06-23T12:00:24.947Z,953.66
2017-06-23T12:01:24.949Z,953.7
2017-06-23T12:02:24.951Z,953.6
2017-06-23T12:03:24.952Z,953.65
2017-06-23T12:04:24.955Z,953.7
2017-06-23T12:05:24.956Z,953.74
2017-06-23T12:06:24.993Z,953.69
2017-06-23T12:07:24.960Z,953.71
2017-06-23T12:08:24.961Z,953.69
2017-06-23T12:09:24.963Z,953.72
2017-06-23T12:10:24.963Z,953.67
2017-06-23T12:11:24.966Z,953.74
2017-06-23T12:12:24.966Z,953.66
2017-06-23T12:13:24.970Z,953.68
2017-06-23T12:14:24.977Z,953.72
2017-06-23T12:15:24.972Z,953.64
2017-06-23T12:16:24.973Z,953.67
2017-06-23T12:17:24.975Z,953.6
2017-06-23T12:18:24.976Z,953.56
2017-06-23T12:19:24.978Z,953.55
2017-06-23T12:20:24.979Z,953.58
2017-06-23T12:21:24.982Z,953.63
2017-06-23T12:22:24.983Z,953.61
2017-06-23T12:23:24.985Z,953.57
2017-06-23T12:24:24.986Z,953.6
2017-06-23T12:25:24.988Z,953.57
2017-06-23T12:26:24.998Z,953.58
2017-06-23T12:27:24.991Z,953.57
2017-06-23T12:28:24.992Z,953.58
2017-06-23T12:29:24.994Z,953.62
2017-06-23T12:30:24.995Z,953.52
2017-06-23T12:31:24.998Z,953.51
2017-06-23T12:32:24.999Z,953.5
2017-06-23T12:33:25.001Z,953.45
2017-06-23T12:34:25.002Z,953.45
2017-06-23T12:35:25.004Z,953.49
2017-06-23T12:36:25.005Z,953.49
2017-06-23T12:37:25.005Z,953.47
2017-06-23T12:38:25.008Z,953.49
2017-06-23T12:39:25.009Z,953.46
2017-06-23T12:40:25.012Z,953.52
2017-06-23T12:41:25.013Z,953.52
2017-06-23T12:42:25.014Z,953.5
2017-06-23T12:43:25.014Z,953.49
2017-06-23T12:44:25.017Z,953.56
2017-06-23T12:45:25.020Z,953.5
2017-06-23T12:46:25.025Z,953.52
2017-06-23T12:47:25.022Z,953.55
2017-06-23T12:48:25.025Z,953.59
2017-06-23T12:49:25.028Z,953.57
2017-06-23T12:50:25.035Z,953.54
2017-06-23T12:51:25.042Z,953.55
2017-06-23T12:52:25.048Z,953.56
2017-06-23T12:53:25.033Z,953.55
2017-06-23T12:54:25.033Z,953.58
2017-06-23T12:55:25.034Z,953.54
2017-06-23T12:56:25.038Z,953.51
2017-06-23T12:57:25.039Z,953.56
2017-06-23T12:58:25.041Z,953.66
2017-06-23T12:59:25.041Z,953.58
2017-06-23T13:00:25.042Z,953.51
2017-06-23T13:01:25.044Z,953.55
2017-06-23T13:02:25.046Z,953.61
2017-06-23T13:03:25.048Z,953.59
2017-06-23T13:04:25.049Z,953.52
2017-06-23T13:05:25.051Z,953.65
2017-06-23T13:06:25.053Z,953.61
2017-06-23T13:07:25.055Z,953.59
2017-06-23T13:08:25.055Z,953.61
2017-06-23T13:09:25.057Z,953.63
2017-06-23T13:10:25.058Z,953.56
2017-06-23T13:11:25.062Z,953.63
2017-06-23T13:12:25.062Z,953.65
2017-06-23T13:13:25.064Z,953.65
2017-06-23T13:14:25.067Z,953.61
2017-06-23T13:15:25.068Z,953.65
2017-06-23T13:16:25.071Z,953.67
2017-06-23T13:17:25.072Z,953.66
2017-06-23T13:18:25.072Z,953.73
2017-06-23T13:19:25.075Z,953.71
2017-06-23T13:20:25.076Z,953.69
2017-06-23T13:21:25.080Z,953.72
2017-06-23T13:22:25.081Z,953.73
2017-06-23T13:23:25.083Z,953.74
2017-06-23T13:24:25.085Z,953.76
2017-06-23T13:25:25.087Z,953.74
2017-06-23T13:26:25.091Z,953.77
2017-06-23T13:27:25.141Z,953.78
2017-06-23T13:28:25.092Z,953.81
2017-06-23T13:29:25.096Z,953.75
2017-06-23T13:30:25.097Z,953.76
2017-06-23T13:31:25.099Z,953.76
2017-06-23T13:32:25.102Z,953.74
2017-06-23T13:33:25.105Z,953.72
2017-06-23T13:34:25.107Z,953.73
2017-06-23T13:35:25.109Z,953.75
2017-06-23T13:36:25.111Z,953.77
2017-06-23T13:37:25.114Z,953.75
2017-06-23T13:38:25.116Z,953.68
2017-06-23T13:39:25.117Z,953.72
2017-06-23T13:40:25.121Z,953.73
2017-06-23T13:41:25.123Z,953.71
2017-06-23T13:42:25.125Z,953.73
2017-06-23T13:43:25.128Z,953.77
2017-06-23T13:44:25.131Z,953.78
2017-06-23T13:45:25.133Z,953.77
2017-06-23T13:46:25.134Z,953.79
2017-06-23T13:47:25.138Z,953.77
2017-06-23T13:48:25.140Z,953.74
2017-06-23T13:49:25.147Z,953.8
2017-06-23T13:50:25.151Z,953.75
2017-06-23T13:51:25.147Z,953.73
2017-06-23T13:52:25.149Z,953.78
2017-06-23T13:53:25.152Z,953.8
2017-06-23T13:54:25.155Z,953.81
2017-06-23T13:55:25.158Z,953.84
2017-06-23T13:56:25.161Z,953.78
2017-06-23T13:57:25.163Z,953.82
2017-06-23T13:58:25.170Z,953.81
2017-06-23T13:59:25.169Z,953.8
2017-06-23T14:00:25.173Z,953.77
2017-06-23T14:01:25.175Z,953.73
2017-06-23T14:02:25.178Z,953.76
2017-06-23T14:03:25.181Z,953.67
2017-06-23T14:04:25.184Z,953.72
2017-06-23T14:05:25.188Z,953.75
2017-06-23T14:06:25.189Z,953.72
2017-06-23T14:07:25.192Z,953.74
2017-06-23T14:08:25.196Z,953.69
2017-06-23T14:09:25.197Z,953.73
2017-06-23T14:10:25.201Z,953.71
2017-06-23T14:11:25.203Z,953.75
2017-06-23T14:12:25.206Z,953.72
2017-06-23T14:13:25.209Z,953.7
2017-06-23T14:14:25.210Z,953.64
2017-06-23T14:15:25.214Z,953.68
2017-06-23T14:16:25.217Z,953.66
2017-06-23T14:17:25.220Z,953.64
2017-06-23T14:18:25.224Z,953.62
2017-06-23T14:19:25.244Z,953.65
2017-06-23T14:20:25.229Z,953.68
2017-06-23T14:21:25.230Z,953.67
2017-06-23T14:22:25.235Z,953.66
2017-06-23T14:23:25.259Z,953.69
2017-06-23T14:24:25.241Z,953.68
2017-06-23T14:25:25.243Z,953.75
2017-06-23T14:26:25.246Z,953.73
2017-06-23T14:27:25.249Z,953.73
2017-06-23T14:28:25.251Z,953.68
2017-06-23T14:29:25.256Z,953.65
2017-06-23T14:30:25.258Z,953.73
2017-06-23T14:31:25.262Z,953.78
2017-06-23T14:32:25.267Z,953.69
2017-06-23T14:33:25.266Z,953.72
2017-06-23T14:34:25.271Z,953.72
2017-06-23T14:35:25.276Z,953.67
2017-06-23T14:36:25.277Z,953.73
2017-06-23T14:37:25.280Z,953.71
2017-06-23T14:38:25.284Z,953.7
2017-06-23T14:39:25.289Z,953.7
2017-06-23T14:40:25.292Z,953.7
2017-06-23T14:41:25.297Z,953.66
2017-06-23T14:42:25.310Z,953.68
2017-06-23T14:43:25.301Z,953.71
2017-06-23T14:44:25.306Z,953.72
2017-06-23T14:45:25.309Z,953.76
2017-06-23T14:46:25.313Z,953.72
2017-06-23T14:47:25.316Z,953.74
2017-06-23T14:48:25.318Z,953.75
2017-06-23T14:49:25.322Z,953.77
2017-06-23T14:50:25.325Z,953.74
2017-06-23T14:51:25.328Z,953.76
2017-06-23T14:52:25.332Z,953.74
2017-06-23T14:53:25.334Z,953.68
2017-06-23T14:54:25.337Z,953.66
2017-06-23T14:55:25.341Z,953.68
2017-06-23T14:56:25.346Z,953.67
2017-06-23T14:57:25.349Z,953.72
2017-06-23T14:58:25.352Z,953.65
2017-06-23T14:59:25.373Z,953.64
2017-06-23T15:00:25.359Z,953.63
2017-06-23T15:01:25.363Z,953.65
2017-06-23T15:02:25.385Z,953.62
2017-06-23T15:03:25.368Z,953.59
2017-06-23T15:04:25.371Z,953.59
2017-06-23T15:05:25.375Z,953.58
2017-06-23T15:06:25.377Z,953.56
2017-06-23T15:07:25.381Z,953.52
2017-06-23T15:08:25.385Z,953.51
2017-06-23T15:09:25.392Z,953.59
2017-06-23T15:10:25.393Z,953.63
2017-06-23T15:11:25.394Z,953.58
2017-06-23T15:12:25.399Z,953.59
2017-06-23T15:13:25.401Z,953.67
2017-06-23T15:14:25.405Z,953.62
2017-06-23T15:15:25.408Z,953.63
2017-06-23T15:16:25.411Z,953.62
2017-06-23T15:17:25.421Z,953.65
2017-06-23T15:18:25.427Z,953.61
2017-06-23T15:19:25.421Z,953.66
2017-06-23T15:20:25.423Z,953.66
2017-06-23T15:21:25.428Z,953.65
2017-06-23T15:22:25.430Z,953.64
2017-06-23T15:23:25.436Z,953.71
2017-06-23T15:24:25.437Z,953.7
2017-06-23T15:25:25.442Z,953.75
2017-06-23T15:26:25.445Z,953.72
2017-06-23T15:27:25.448Z,953.71
2017-06-23T15:28:25.454Z,953.65
2017-06-23T15:29:25.456Z,953.69
2017-06-23T15:30:25.457Z,953.7
2017-06-23T15:31:25.466Z,953.69
2017-06-23T15:32:25.474Z,953.71
2017-06-23T15:33:25.480Z,953.73
2017-06-23T15:34:25.470Z,953.75
2017-06-23T15:35:25.473Z,953.71
2017-06-23T15:36:25.476Z,953.67
2017-06-23T15:37:25.478Z,953.7
2017-06-23T15:38:25.481Z,953.69
2017-06-23T15:39:25.485Z,953.7
2017-06-23T15:40:25.489Z,953.7
2017-06-23T15:41:25.492Z,953.64
2017-06-23T15:42:25.494Z,953.63
2017-06-23T15:43:25.496Z,953.59
2017-06-23T15:44:25.499Z,953.63
2017-06-23T15:45:25.503Z,953.6
2017-06-23T15:46:25.505Z,953.65
2017-06-23T15:47:25.508Z,953.65
2017-06-23T15:48:25.510Z,953.63
2017-06-23T15:49:25.513Z,953.65
2017-06-23T15:50:25.516Z,953.62
2017-06-23T15:51:25.520Z,953.64
2017-06-23T15:52:25.523Z,953.66
2017-06-23T15:53:25.524Z,953.62
2017-06-23T15:54:25.538Z,953.66
2017-06-23T15:55:25.544Z,953.6
2017-06-23T15:56:25.550Z,953.64
2017-06-23T15:57:25.555Z,953.65
2017-06-23T15:58:25.542Z,953.65
2017-06-23T15:59:25.543Z,953.64
2017-06-23T16:00:25.545Z,953.63
2017-06-23T16:01:25.547Z,953.63
2017-06-23T16:02:25.551Z,953.64
2017-06-23T16:03:25.553Z,953.64
2017-06-23T16:04:25.556Z,953.67
2017-06-23T16:05:25.577Z,953.7
2017-06-23T16:06:25.562Z,953.71
2017-06-23T16:07:25.563Z,953.69
2017-06-23T16:08:25.566Z,953.73
2017-06-23T16:09:25.568Z,953.71
2017-06-23T16:10:25.572Z,953.73
2017-06-23T16:11:25.574Z,953.68
2017-06-23T16:12:25.578Z,953.71
2017-06-23T16:13:25.580Z,953.68
2017-06-23T16:14:25.581Z,953.71
2017-06-23T16:15:25.583Z,953.66
2017-06-23T16:16:25.586Z,953.65
2017-06-23T16:17:25.590Z,953.64
2017-06-23T16:18:25.590Z,953.66
2017-06-23T16:19:25.593Z,953.64
2017-06-23T16:20:25.595Z,953.61
2017-06-23T16:21:25.598Z,953.65
2017-06-23T16:22:25.600Z,953.66
2017-06-23T16:23:25.602Z,953.71
2017-06-23T16:24:25.604Z,953.7
2017-06-23T16:25:25.607Z,953.7
2017-06-23T16:26:25.609Z,953.69
2017-06-23T16:27:25.611Z,953.69
2017-06-23T16:28:25.612Z,953.7
2017-06-23T16:29:25.615Z,953.71
2017-06-23T16:30:25.617Z,953.71
2017-06-23T16:31:25.618Z,953.71
2017-06-23T16:32:25.622Z,953.74
2017-06-23T16:33:25.624Z,953.73
2017-06-23T16:34:25.626Z,953.73
2017-06-23T16:35:25.629Z,953.72
2017-06-23T16:36:25.632Z,953.73
2017-06-23T16:37:25.634Z,953.67
2017-06-23T16:38:25.635Z,953.68
2017-06-23T16:39:25.639Z,953.7
2017-06-23T16:40:25.639Z,953.69
2017-06-23T16:41:25.644Z,953.7
2017-06-23T16:42:25.644Z,953.71
2017-06-23T16:43:25.647Z,953.74
2017-06-23T16:44:25.648Z,953.75
2017-06-23T16:45:25.651Z,953.76
2017-06-23T16:46:25.654Z,953.79
2017-06-23T16:47:25.656Z,953.72
2017-06-23T16:48:25.659Z,953.73
2017-06-23T16:49:25.661Z,953.73
2017-06-23T16:50:25.664Z,953.71
2017-06-23T16:51:25.663Z,953.71
2017-06-23T16:52:25.687Z,953.75
2017-06-23T16:53:25.670Z,953.71
2017-06-23T16:54:25.672Z,953.76
2017-06-23T16:55:25.675Z,953.78
2017-06-23T16:56:25.676Z,953.81
2017-06-23T16:57:25.681Z,953.77
2017-06-23T16:58:25.680Z,953.75
2017-06-23T16:59:25.684Z,953.77
2017-06-23T17:00:25.687Z,953.78
2017-06-23T17:01:25.688Z,953.75
2017-06-23T17:02:25.707Z,953.73
2017-06-23T17:03:25.694Z,953.72
2017-06-23T17:04:25.715Z,953.71
2017-06-23T17:05:25.699Z,953.65
2017-06-23T17:06:25.700Z,953.67
2017-06-23T17:07:25.702Z,953.68
2017-06-23T17:08:25.706Z,953.66
2017-06-23T17:09:25.710Z,953.67
2017-06-23T17:10:25.711Z,953.62
2017-06-23T17:11:25.715Z,953.7
2017-06-23T17:12:25.716Z,953.67
2017-06-23T17:13:25.717Z,953.68
2017-06-23T17:14:25.721Z,953.7
2017-06-23T17:15:25.723Z,953.71
2017-06-23T17:16:25.726Z,953.71
2017-06-23T17:17:25.728Z,953.73
2017-06-23T17:18:25.739Z,953.77
2017-06-23T17:19:25.735Z,953.75
2017-06-23T17:20:25.753Z,953.79
2017-06-23T17:21:25.740Z,953.74
2017-06-23T17:22:25.742Z,953.73
2017-06-23T17:23:25.748Z,953.77
2017-06-23T17:24:25.750Z,953.79
2017-06-23T17:25:25.754Z,953.83
2017-06-23T17:26:25.758Z,953.8
2017-06-23T17:27:25.762Z,953.81
2017-06-23T17:28:25.767Z,953.85
2017-06-23T17:29:25.771Z,953.81
2017-06-23T17:30:25.776Z,953.8
2017-06-23T17:31:25.781Z,953.77
2017-06-23T17:32:25.787Z,953.74
2017-06-23T17:33:25.792Z,953.71
2017-06-23T17:34:25.798Z,953.69
2017-06-23T17:35:25.803Z,953.74
2017-06-23T17:36:25.809Z,953.74
2017-06-23T17:37:25.835Z,953.76
2017-06-23T17:38:25.821Z,953.74
2017-06-23T17:39:25.825Z,953.74
2017-06-23T17:40:25.833Z,953.79
2017-06-23T17:41:25.847Z,953.78
2017-06-23T17:42:25.844Z,953.83
2017-06-23T17:43:25.850Z,953.85
2017-06-23T17:44:25.857Z,953.82
2017-06-23T17:45:25.863Z,953.82
2017-06-23T17:46:25.869Z,953.85
2017-06-23T17:47:25.875Z,953.81
2017-06-23T17:48:25.882Z,953.81
2017-06-23T17:49:25.887Z,953.79
2017-06-23T17:50:25.893Z,953.78
2017-06-23T17:51:25.899Z,953.77
2017-06-23T17:52:25.908Z,953.81
2017-06-23T17:53:25.912Z,953.86
2017-06-23T17:54:25.918Z,953.87
2017-06-23T17:55:25.925Z,953.87
2017-06-23T17:56:25.932Z,953.87
2017-06-23T17:57:25.949Z,953.86
2017-06-23T17:58:25.943Z,953.86
2017-06-23T17:59:25.950Z,953.86
2017-06-23T18:00:25.955Z,953.88
2017-06-23T18:01:25.958Z,953.84
2017-06-23T18:02:25.975Z,953.89
2017-06-23T18:03:25.970Z,953.87
2017-06-23T18:04:25.973Z,953.84
2017-06-23T18:05:25.980Z,953.83
2017-06-23T18:06:25.984Z,953.81
2017-06-23T18:07:25.990Z,953.82
2017-06-23T18:08:26.010Z,953.85
2017-06-23T18:09:26.017Z,953.86
2017-06-23T18:10:26.023Z,953.88
2017-06-23T18:11:26.029Z,953.88
2017-06-23T18:12:26.010Z,953.91
2017-06-23T18:13:26.014Z,953.98
2017-06-23T18:14:26.019Z,953.97
2017-06-23T18:15:26.021Z,954
2017-06-23T18:16:26.026Z,954.02
2017-06-23T18:17:26.029Z,954.03
2017-06-23T18:18:26.034Z,954.04
2017-06-23T18:19:26.037Z,954.07
2017-06-23T18:20:26.042Z,954.05
2017-06-23T18:21:26.045Z,954.03
2017-06-23T18:22:26.048Z,954.05
2017-06-23T18:23:26.053Z,954.08
2017-06-23T18:24:26.057Z,954.08
2017-06-23T18:25:26.060Z,954.07
2017-06-23T18:26:26.062Z,954.06
2017-06-23T18:27:26.065Z,954.1
2017-06-23T18:28:26.069Z,954.07
2017-06-23T18:29:26.075Z,954.05
2017-06-23T18:30:26.077Z,954.06
2017-06-23T18:31:26.076Z,954.08
2017-06-23T18:32:26.080Z,954.09
2017-06-23T18:33:26.133Z,954.05
2017-06-23T18:34:26.086Z,954.05
2017-06-23T18:35:26.089Z,954.06
2017-06-23T18:36:26.092Z,954.04
2017-06-23T18:37:26.094Z,954.07
2017-06-23T18:38:26.094Z,954.08
2017-06-23T18:39:26.098Z,954.11
2017-06-23T18:40:26.099Z,954.1
2017-06-23T18:41:26.102Z,954.12
2017-06-23T18:42:26.103Z,954.13
2017-06-23T18:43:26.111Z,954.11
2017-06-23T18:44:26.107Z,954.13
2017-06-23T18:45:26.110Z,954.13
2017-06-23T18:46:26.110Z,954.11
2017-06-23T18:47:26.114Z,954.12
2017-06-23T18:48:26.112Z,954.13
2017-06-23T18:49:26.115Z,954.12
2017-06-23T18:50:26.115Z,954.13
2017-06-23T18:51:26.118Z,954.16
2017-06-23T18:52:26.118Z,954.16
2017-06-23T18:53:26.120Z,954.15
2017-06-23T18:54:26.121Z,954.16
2017-06-23T18:55:26.122Z,954.17
2017-06-23T18:56:26.123Z,954.14
2017-06-23T18:57:26.123Z,954.14
2017-06-23T18:58:26.127Z,954.21
2017-06-23T18:59:26.124Z,954.21
2017-06-23T19:00:26.127Z,954.19
2017-06-23T19:01:26.127Z,954.22
2017-06-23T19:02:26.127Z,954.25
2017-06-23T19:03:26.126Z,954.2
2017-06-23T19:04:26.127Z,954.2
2017-06-23T19:05:26.149Z,954.23
2017-06-23T19:06:26.130Z,954.23
2017-06-23T19:07:26.130Z,954.21
2017-06-23T19:08:26.130Z,954.22
2017-06-23T19:09:26.131Z,954.18
2017-06-23T19:10:26.130Z,954.19
2017-06-23T19:11:26.130Z,954.26
2017-06-23T19:12:26.132Z,954.22
2017-06-23T19:13:26.138Z,954.22
2017-06-23T19:14:26.129Z,954.22
2017-06-23T19:15:26.130Z,954.23
2017-06-23T19:16:26.130Z,954.25
2017-06-23T19:17:26.129Z,954.31
2017-06-23T19:18:26.129Z,954.28
2017-06-23T19:19:26.129Z,954.3
2017-06-23T19:20:26.128Z,954.26
2017-06-23T19:21:26.142Z,954.31
2017-06-23T19:22:26.128Z,954.32
2017-06-23T19:23:26.127Z,954.35
2017-06-23T19:24:26.126Z,954.41
2017-06-23T19:25:26.125Z,954.38
2017-06-23T19:26:26.125Z,954.38
2017-06-23T19:27:26.123Z,954.41
2017-06-23T19:28:26.122Z,954.4
2017-06-23T19:29:26.123Z,954.42
2017-06-23T19:30:26.120Z,954.42
2017-06-23T19:31:26.121Z,954.42
2017-06-23T19:32:26.118Z,954.43
2017-06-23T19:33:26.119Z,954.45
2017-06-23T19:34:26.116Z,954.42
2017-06-23T19:35:26.119Z,954.43
2017-06-23T19:36:26.125Z,954.5
2017-06-23T19:37:26.112Z,954.51
2017-06-23T19:38:26.111Z,954.49
2017-06-23T19:39:26.109Z,954.52
2017-06-23T19:40:26.109Z,954.55
2017-06-23T19:41:26.108Z,954.53
2017-06-23T19:42:26.106Z,954.53
2017-06-23T19:43:26.107Z,954.55
2017-06-23T19:44:26.114Z,954.56
2017-06-23T19:45:26.101Z,954.51
2017-06-23T19:46:26.102Z,954.56
2017-06-23T19:47:26.100Z,954.53
2017-06-23T19:48:26.106Z,954.54
2017-06-23T19:49:26.112Z,954.61
2017-06-23T19:50:26.148Z,954.61
2017-06-23T19:51:26.096Z,954.62
2017-06-23T19:52:26.093Z,954.64
2017-06-23T19:53:26.091Z,954.65
2017-06-23T19:54:26.089Z,954.66
2017-06-23T19:55:26.087Z,954.65
2017-06-23T19:56:26.107Z,954.66
2017-06-23T19:57:26.084Z,954.63
2017-06-23T19:58:26.081Z,954.63
2017-06-23T19:59:26.079Z,954.68
2017-06-23T20:00:26.078Z,954.69
2017-06-23T20:01:26.075Z,954.7
2017-06-23T20:02:26.076Z,954.71
2017-06-23T20:03:26.185Z,954.71
2017-06-23T20:04:26.071Z,954.7
2017-06-23T20:05:26.070Z,954.68
2017-06-23T20:06:26.067Z,954.69
2017-06-23T20:07:26.066Z,954.7